Custer, Michigan
Current Conditions -  °F | °C
As of 8:15 AM on Thursday 18 Dec 2014 (Local Time) from KLDM Reporting Station
Overcast Overcast  
Wind Chill: 31°   Ceiling: 2200
Heat Index: 31°   Visibility: 10mi
Dew Point: 28°   Wind: 0mph
Humidity: 88%   Direction: NA
Pressure: 30.21"   Gusts: NA
Location:  43.95°N, 86.22°W
Report Text: KLDM 181315Z AUTO 00000KT 10SM SCT016 OVC022 M01/M02 A3021 RMK AO2 T10071025
Loading
Personal Weather Stations






























Interactive Weather Map New forecast layout! Learn more

10-Day Weather Forecast

Advertisements
Track Severe Weather on mobile